createdAt,value
2022-12-11T00:00:17.255Z,0.00
2022-12-11T00:02:45.994Z,-0.10
2022-12-11T00:05:12.756Z,0.00
2022-12-11T00:07:41.806Z,0.00
2022-12-11T00:10:09.407Z,0.00
2022-12-11T00:12:35.941Z,0.00
2022-12-11T00:15:02.679Z,0.00
2022-12-11T00:17:29.206Z,0.00
2022-12-11T00:19:58.235Z,0.00
2022-12-11T00:22:24.799Z,0.00
2022-12-11T00:24:51.566Z,0.00
2022-12-11T00:27:20.498Z,0.00
2022-12-11T00:29:47.021Z,0.00
2022-12-11T00:32:13.615Z,0.00
2022-12-11T00:34:40.344Z,-0.10
2022-12-11T00:37:06.977Z,0.00
2022-12-11T00:39:33.638Z,-0.10
2022-12-11T00:42:00.191Z,-0.10
2022-12-11T00:44:26.731Z,-0.10
2022-12-11T00:46:53.323Z,-0.10
2022-12-11T00:49:19.870Z,-0.10
2022-12-11T00:51:46.443Z,-0.10
2022-12-11T00:54:15.269Z,-0.10
2022-12-11T00:56:41.891Z,-0.10
2022-12-11T00:59:08.506Z,-0.10
2022-12-11T01:01:35.079Z,-0.10
2022-12-11T01:04:01.808Z,-0.10
2022-12-11T01:06:28.799Z,0.00
2022-12-11T01:09:14.589Z,-0.10
2022-12-11T01:11:44.388Z,-0.10
2022-12-11T01:14:11.418Z,-0.10
2022-12-11T01:16:38.175Z,0.00
2022-12-11T01:19:06.960Z,0.00
2022-12-11T01:21:33.536Z,0.00
2022-12-11T01:24:02.278Z,0.00
2022-12-11T01:26:29.428Z,0.00
2022-12-11T01:28:55.958Z,0.00
2022-12-11T01:31:24.951Z,0.00
2022-12-11T01:33:53.655Z,0.00
2022-12-11T01:36:21.391Z,0.00
2022-12-11T01:38:50.961Z,0.00
2022-12-11T01:41:18.169Z,-0.10
2022-12-11T01:44:11.218Z,-0.10
2022-12-11T01:46:39.932Z,-0.10
2022-12-11T01:49:09.028Z,-0.10
2022-12-11T01:51:41.627Z,-0.10
2022-12-11T01:54:11.314Z,-0.20
2022-12-11T01:56:41.609Z,-0.20
2022-12-11T01:59:10.771Z,-0.20
2022-12-11T02:01:40.335Z,-0.30
2022-12-11T02:04:07.491Z,-0.30
2022-12-11T02:06:34.178Z,-0.30
2022-12-11T02:09:01.276Z,-0.30
2022-12-11T02:11:36.887Z,-0.30
2022-12-11T02:14:06.841Z,-0.20
2022-12-11T02:16:36.455Z,-0.30
2022-12-11T02:19:10.495Z,-0.30
2022-12-11T02:21:45.086Z,-0.20
2022-12-11T02:24:11.812Z,-0.20
2022-12-11T02:26:59.762Z,-0.20
2022-12-11T02:29:30.537Z,-0.20
2022-12-11T02:32:05.604Z,-0.20
2022-12-11T02:34:34.308Z,-0.20
2022-12-11T02:37:04.240Z,-0.20
2022-12-11T02:39:32.121Z,-0.20
2022-12-11T02:41:59.025Z,-0.20
2022-12-11T02:44:27.093Z,-0.20
2022-12-11T02:46:53.889Z,-0.10
2022-12-11T02:49:21.411Z,-0.10
2022-12-11T02:51:48.238Z,-0.10
2022-12-11T02:54:20.786Z,-0.10
2022-12-11T02:56:52.038Z,-0.10
2022-12-11T02:59:26.082Z,0.00
2022-12-11T03:01:52.622Z,0.00
2022-12-11T03:04:24.771Z,0.00
2022-12-11T03:06:53.291Z,0.00
2022-12-11T03:09:20.163Z,0.00
2022-12-11T03:11:46.715Z,-0.10
2022-12-11T03:14:14.240Z,0.00
2022-12-11T03:17:07.341Z,0.00
2022-12-11T03:19:41.600Z,0.00
2022-12-11T03:22:26.798Z,0.00
2022-12-11T03:24:56.857Z,0.00
2022-12-11T03:27:29.163Z,0.10
2022-12-11T03:29:57.923Z,0.10
2022-12-11T03:32:27.592Z,0.10
2022-12-11T03:35:03.810Z,0.10
2022-12-11T03:37:32.370Z,0.10
2022-12-11T03:40:02.953Z,0.10
2022-12-11T03:42:29.652Z,0.10
2022-12-11T03:44:57.951Z,0.10
2022-12-11T03:47:25.811Z,0.10
2022-12-11T03:49:55.800Z,0.10
2022-12-11T03:52:23.135Z,0.10
2022-12-11T03:54:50.749Z,0.10
2022-12-11T03:57:19.151Z,0.10
2022-12-11T03:59:45.742Z,0.10
2022-12-11T04:02:12.451Z,0.10
2022-12-11T04:04:40.136Z,0.20
2022-12-11T04:07:07.184Z,0.20
2022-12-11T04:09:34.177Z,0.20
2022-12-11T04:12:00.706Z,0.20
2022-12-11T04:14:45.789Z,0.20
2022-12-11T04:17:32.310Z,0.30
2022-12-11T04:20:17.781Z,0.20
2022-12-11T04:23:03.097Z,0.30
2022-12-11T04:25:29.630Z,0.30
2022-12-11T04:27:56.286Z,0.20
2022-12-11T04:30:26.939Z,0.30
2022-12-11T04:32:56.376Z,0.30
2022-12-11T04:35:25.257Z,0.30
2022-12-11T04:37:52.506Z,0.30
2022-12-11T04:40:19.564Z,0.30
2022-12-11T04:42:46.139Z,0.30
2022-12-11T04:45:13.148Z,0.30
2022-12-11T04:47:40.400Z,0.30
2022-12-11T04:50:08.197Z,0.30
2022-12-11T04:52:34.824Z,0.30
2022-12-11T04:55:01.401Z,0.30
2022-12-11T04:57:27.968Z,0.30
2022-12-11T04:59:54.526Z,0.30
2022-12-11T05:02:21.145Z,0.30
2022-12-11T05:04:47.830Z,0.30
2022-12-11T05:07:14.464Z,0.40
2022-12-11T05:09:41.002Z,0.40
2022-12-11T05:12:07.505Z,0.40
2022-12-11T05:14:38.740Z,0.40
2022-12-11T05:17:05.263Z,0.40
2022-12-11T05:19:33.978Z,0.40
2022-12-11T05:22:00.541Z,0.40
2022-12-11T05:24:27.097Z,0.40
2022-12-11T05:26:53.682Z,0.40
2022-12-11T05:29:20.216Z,0.40
2022-12-11T05:31:46.791Z,0.40
2022-12-11T05:34:15.787Z,0.40
2022-12-11T05:36:42.488Z,0.40
2022-12-11T05:39:11.520Z,0.40
2022-12-11T05:41:38.090Z,0.40
2022-12-11T05:44:06.890Z,0.30
2022-12-11T05:46:33.416Z,0.30
2022-12-11T05:49:02.448Z,0.20
2022-12-11T05:51:31.666Z,0.20
2022-12-11T05:53:58.302Z,0.20
2022-12-11T05:56:26.357Z,0.30
2022-12-11T05:58:53.686Z,0.20
2022-12-11T06:01:20.214Z,0.20
2022-12-11T06:03:49.190Z,0.20
2022-12-11T06:06:16.004Z,0.20
2022-12-11T06:08:42.570Z,0.20
2022-12-11T06:11:09.331Z,0.20
2022-12-11T06:13:35.969Z,0.30
2022-12-11T06:16:03.827Z,0.30
2022-12-11T06:18:30.792Z,0.30
2022-12-11T06:20:57.418Z,0.30
2022-12-11T06:23:24.041Z,0.30
2022-12-11T06:25:53.391Z,0.40
2022-12-11T06:28:19.921Z,0.40
2022-12-11T06:30:46.488Z,0.40
2022-12-11T06:33:13.500Z,0.40
2022-12-11T06:35:42.334Z,0.40
2022-12-11T06:38:10.614Z,0.40
2022-12-11T06:40:39.752Z,0.30
2022-12-11T06:43:06.359Z,0.20
2022-12-11T06:45:32.961Z,0.20
2022-12-11T06:47:59.543Z,0.00
2022-12-11T06:50:26.085Z,-0.10
2022-12-11T06:52:52.629Z,-0.10
2022-12-11T06:55:21.592Z,-0.20
2022-12-11T06:57:48.122Z,-0.10
2022-12-11T07:00:15.284Z,0.00
2022-12-11T07:02:41.995Z,0.00
2022-12-11T07:05:09.058Z,-0.10
2022-12-11T07:07:35.897Z,-0.10
2022-12-11T07:10:08.344Z,-0.10
2022-12-11T07:12:35.557Z,-0.20
2022-12-11T07:15:02.228Z,-0.20
2022-12-11T07:17:31.656Z,-0.30
2022-12-11T07:19:58.182Z,-0.20
2022-12-11T07:22:24.742Z,-0.20
2022-12-11T07:24:51.261Z,0.00
2022-12-11T07:27:20.225Z,0.00
2022-12-11T07:29:46.806Z,0.00
2022-12-11T07:32:13.486Z,0.00
2022-12-11T07:34:40.167Z,0.10
2022-12-11T07:37:09.288Z,0.20
2022-12-11T07:39:35.837Z,0.20
2022-12-11T07:42:04.212Z,0.20
2022-12-11T07:44:30.868Z,0.30
2022-12-11T07:46:57.389Z,0.30
2022-12-11T07:49:26.223Z,0.30
2022-12-11T07:51:57.844Z,0.20
2022-12-11T07:54:24.404Z,0.20
2022-12-11T07:56:53.750Z,0.30
2022-12-11T07:59:22.791Z,0.30
2022-12-11T08:01:49.462Z,0.30
2022-12-11T08:04:16.094Z,0.30
2022-12-11T08:06:43.059Z,0.30
2022-12-11T08:09:20.689Z,0.30
2022-12-11T08:11:51.204Z,0.30
2022-12-11T08:14:18.438Z,0.30
2022-12-11T08:16:45.148Z,0.30
2022-12-11T08:19:12.240Z,0.40
2022-12-11T08:21:39.292Z,0.40
2022-12-11T08:24:05.986Z,0.40
2022-12-11T08:26:32.929Z,0.40
2022-12-11T08:29:00.615Z,0.40
2022-12-11T08:31:27.160Z,0.40
2022-12-11T08:33:55.018Z,0.40
2022-12-11T08:36:22.971Z,0.40
2022-12-11T08:38:49.944Z,0.30
2022-12-11T08:41:18.354Z,0.30
2022-12-11T08:43:45.235Z,0.40
2022-12-11T08:46:12.457Z,0.40
2022-12-11T08:48:40.176Z,0.40
2022-12-11T08:51:07.925Z,0.40
2022-12-11T08:53:36.962Z,0.50
2022-12-11T08:56:07.033Z,0.60
2022-12-11T08:58:36.007Z,0.60
2022-12-11T09:01:06.732Z,0.60
2022-12-11T09:03:33.816Z,0.60
2022-12-11T09:06:00.412Z,0.60
2022-12-11T09:08:27.049Z,0.50
2022-12-11T09:10:53.629Z,0.40
2022-12-11T09:13:22.592Z,0.40
2022-12-11T09:15:51.658Z,0.40
2022-12-11T09:18:18.243Z,0.40
2022-12-11T09:20:44.808Z,0.50
2022-12-11T09:23:12.625Z,0.60
2022-12-11T09:25:44.810Z,0.60
2022-12-11T09:28:11.416Z,0.60
2022-12-11T09:30:38.056Z,0.60
2022-12-11T09:33:04.781Z,0.70
2022-12-11T09:35:33.613Z,0.70
2022-12-11T09:38:02.303Z,0.70
2022-12-11T09:40:29.502Z,0.70
2022-12-11T09:43:06.282Z,0.70
2022-12-11T09:45:33.170Z,0.70
2022-12-11T09:48:00.312Z,0.80
2022-12-11T09:50:32.664Z,0.80
2022-12-11T09:53:10.297Z,0.80
2022-12-11T09:56:02.763Z,0.80
2022-12-11T09:58:47.937Z,0.70
2022-12-11T10:01:32.700Z,0.70
2022-12-11T10:03:59.299Z,0.70
2022-12-11T10:06:30.363Z,0.70
2022-12-11T10:09:01.826Z,0.70
2022-12-11T10:11:35.267Z,0.70
2022-12-11T10:14:07.964Z,0.70
2022-12-11T10:16:43.884Z,0.70
2022-12-11T10:19:16.329Z,0.80
2022-12-11T10:21:43.399Z,0.90
2022-12-11T10:24:41.872Z,0.90
2022-12-11T10:27:13.972Z,0.90
2022-12-11T10:29:43.019Z,0.90
2022-12-11T10:32:15.729Z,1.00
2022-12-11T10:34:43.986Z,1.00
2022-12-11T10:37:15.497Z,1.00
2022-12-11T10:39:42.960Z,1.00
2022-12-11T10:42:22.413Z,1.10
2022-12-11T10:44:56.386Z,1.10
2022-12-11T10:47:23.026Z,1.10
2022-12-11T10:49:58.241Z,1.20
2022-12-11T10:52:27.607Z,1.20
2022-12-11T10:55:01.916Z,1.10
2022-12-11T10:57:32.181Z,1.10
2022-12-11T10:59:59.530Z,1.00
2022-12-11T11:02:30.961Z,0.90
2022-12-11T11:04:58.814Z,0.90
2022-12-11T11:07:27.216Z,1.00
2022-12-11T11:10:23.245Z,1.00
2022-12-11T11:12:57.919Z,1.10
2022-12-11T11:15:30.373Z,1.10
2022-12-11T11:17:58.060Z,1.00
2022-12-11T11:20:28.024Z,1.00
2022-12-11T11:22:58.628Z,1.00
2022-12-11T11:25:26.285Z,1.00
2022-12-11T11:28:00.257Z,1.00
2022-12-11T11:30:27.218Z,1.10
2022-12-11T11:32:58.105Z,1.10
2022-12-11T11:35:25.813Z,1.10
2022-12-11T11:38:00.162Z,1.20
2022-12-11T11:40:45.417Z,1.20
2022-12-11T11:43:34.382Z,1.30
2022-12-11T11:46:04.202Z,1.30
2022-12-11T11:48:34.160Z,1.30
2022-12-11T11:51:05.950Z,1.20
2022-12-11T11:53:37.340Z,1.20
2022-12-11T11:56:22.597Z,1.20
2022-12-11T11:58:56.408Z,1.20
2022-12-11T12:01:25.962Z,1.20
2022-12-11T12:03:52.820Z,1.20
2022-12-11T12:06:30.467Z,1.30
2022-12-11T12:09:13.033Z,1.20
2022-12-11T12:11:50.883Z,1.20
2022-12-11T12:14:50.662Z,1.10
2022-12-11T12:17:09.808Z,1.10
2022-12-11T12:19:53.129Z,1.20
2022-12-11T12:22:19.645Z,1.10
2022-12-11T12:24:48.901Z,1.20
2022-12-11T12:27:51.156Z,1.20
2022-12-11T12:30:22.409Z,1.20
2022-12-11T12:32:50.077Z,1.20
2022-12-11T12:35:28.419Z,1.30
2022-12-11T12:37:58.524Z,1.20
2022-12-11T12:40:27.231Z,1.10
2022-12-11T12:42:56.769Z,0.90
2022-12-11T12:45:43.581Z,0.80
2022-12-11T12:48:10.257Z,0.90
2022-12-11T12:50:38.479Z,0.90
2022-12-11T12:53:08.943Z,0.90
2022-12-11T12:55:36.487Z,1.00
2022-12-11T12:58:08.658Z,1.00
2022-12-11T13:00:44.255Z,1.00
2022-12-11T13:03:15.394Z,1.10
2022-12-11T13:05:43.233Z,1.10
2022-12-11T13:08:10.944Z,1.10
2022-12-11T13:10:41.366Z,1.10
2022-12-11T13:13:26.183Z,1.10
2022-12-11T13:15:53.552Z,1.20
2022-12-11T13:18:34.723Z,1.30
2022-12-11T13:21:02.184Z,1.30
2022-12-11T13:23:31.227Z,1.40
2022-12-11T13:25:59.192Z,1.40
2022-12-11T13:28:31.241Z,1.50
2022-12-11T13:30:59.446Z,1.50
2022-12-11T13:33:26.467Z,1.50
2022-12-11T13:36:14.959Z,1.50
2022-12-11T13:38:50.937Z,1.50
2022-12-11T13:41:18.223Z,1.50
2022-12-11T13:43:46.600Z,1.50
2022-12-11T13:46:15.076Z,1.50
2022-12-11T13:49:08.048Z,1.40
2022-12-11T13:51:36.099Z,1.50
2022-12-11T13:54:07.449Z,1.50
2022-12-11T13:56:34.275Z,1.50
2022-12-11T13:59:03.240Z,1.50
2022-12-11T14:01:32.037Z,1.50
2022-12-11T14:04:10.151Z,1.50
2022-12-11T14:06:38.123Z,1.50
2022-12-11T14:09:05.404Z,1.60
2022-12-11T14:11:36.702Z,1.50
2022-12-11T14:14:04.916Z,1.50
2022-12-11T14:16:34.745Z,1.50
2022-12-11T14:19:07.752Z,1.50
2022-12-11T14:21:34.398Z,1.60
2022-12-11T14:24:06.405Z,1.50
2022-12-11T14:26:34.255Z,1.50
2022-12-11T14:29:00.986Z,1.50
2022-12-11T14:31:30.249Z,1.50
2022-12-11T14:34:02.597Z,1.50
2022-12-11T14:36:29.942Z,1.50
2022-12-11T14:39:00.059Z,1.50
2022-12-11T14:41:33.242Z,1.50
2022-12-11T14:44:02.379Z,1.60
2022-12-11T14:46:34.892Z,1.60
2022-12-11T14:49:15.015Z,1.60
2022-12-11T14:51:41.748Z,1.60
2022-12-11T14:54:20.107Z,1.60
2022-12-11T14:56:49.572Z,1.50
2022-12-11T14:59:25.468Z,1.40
2022-12-11T15:01:59.612Z,1.40
2022-12-11T15:04:30.541Z,1.30
2022-12-11T15:06:57.816Z,1.40
2022-12-11T15:09:33.771Z,1.40
2022-12-11T15:12:08.383Z,1.50
2022-12-11T15:14:37.361Z,1.50
2022-12-11T15:17:12.446Z,1.50
2022-12-11T15:19:41.923Z,1.50
2022-12-11T15:22:13.665Z,1.50
2022-12-11T15:24:43.501Z,1.50
2022-12-11T15:27:19.159Z,1.50
2022-12-11T15:29:45.755Z,1.50
2022-12-11T15:32:14.028Z,1.50
2022-12-11T15:34:46.578Z,1.50
2022-12-11T15:37:22.275Z,1.60
2022-12-11T15:39:49.152Z,1.50
2022-12-11T15:42:18.555Z,1.50
2022-12-11T15:44:45.253Z,1.50
2022-12-11T15:47:15.720Z,1.50
2022-12-11T15:49:42.275Z,1.50
2022-12-11T15:52:08.850Z,1.50
2022-12-11T15:54:35.396Z,1.50
2022-12-11T15:57:06.053Z,1.50
2022-12-11T15:59:33.032Z,1.50
2022-12-11T16:01:59.695Z,1.50
2022-12-11T16:04:26.314Z,1.50
2022-12-11T16:06:53.152Z,1.50
2022-12-11T16:09:19.715Z,1.40
2022-12-11T16:11:46.286Z,1.40
2022-12-11T16:14:12.981Z,1.40
2022-12-11T16:16:39.599Z,1.50
2022-12-11T16:19:06.099Z,1.50
2022-12-11T16:21:32.673Z,1.50
2022-12-11T16:23:59.274Z,1.50
2022-12-11T16:26:25.810Z,1.40
2022-12-11T16:28:52.347Z,1.50
2022-12-11T16:31:19.111Z,1.40
2022-12-11T16:33:45.708Z,1.50
2022-12-11T16:36:13.722Z,1.50
2022-12-11T16:38:40.285Z,1.50
2022-12-11T16:41:07.106Z,1.50
2022-12-11T16:43:33.669Z,1.50
2022-12-11T16:46:02.781Z,1.50
2022-12-11T16:48:31.740Z,1.40
2022-12-11T16:51:00.826Z,1.40
2022-12-11T16:53:29.574Z,1.40
2022-12-11T16:55:58.569Z,1.40
2022-12-11T16:58:25.104Z,1.40
2022-12-11T17:00:54.602Z,1.50
2022-12-11T17:03:21.115Z,1.50
2022-12-11T17:05:47.734Z,1.50
2022-12-11T17:08:14.366Z,1.50
2022-12-11T17:10:43.890Z,1.50
2022-12-11T17:13:10.498Z,1.50
2022-12-11T17:15:43.547Z,1.40
2022-12-11T17:18:10.738Z,1.40
2022-12-11T17:20:41.740Z,1.40
2022-12-11T17:23:10.318Z,1.40
2022-12-11T17:25:41.050Z,1.40
2022-12-11T17:28:10.109Z,1.40
2022-12-11T17:30:43.395Z,1.40
2022-12-11T17:33:10.798Z,1.40
2022-12-11T17:35:38.044Z,1.40
2022-12-11T17:38:05.008Z,1.40
2022-12-11T17:40:33.803Z,1.40
2022-12-11T17:43:06.283Z,1.40
2022-12-11T17:45:32.842Z,1.50
2022-12-11T17:48:01.963Z,1.40
2022-12-11T17:50:30.701Z,1.40
2022-12-11T17:52:57.711Z,1.40
2022-12-11T17:55:24.686Z,1.40
2022-12-11T17:57:51.277Z,1.40
2022-12-11T18:00:17.988Z,1.40
2022-12-11T18:02:44.507Z,1.30
2022-12-11T18:05:12.083Z,1.30
2022-12-11T18:07:38.979Z,1.30
2022-12-11T18:10:05.707Z,1.40
2022-12-11T18:12:32.351Z,1.40
2022-12-11T18:15:00.117Z,1.40
2022-12-11T18:17:28.965Z,1.30
2022-12-11T18:19:55.611Z,1.30
2022-12-11T18:22:22.215Z,1.30
2022-12-11T18:24:49.071Z,1.30
2022-12-11T18:27:15.900Z,1.30
2022-12-11T18:29:42.508Z,1.40
2022-12-11T18:32:11.235Z,1.40
2022-12-11T18:34:37.765Z,1.30
2022-12-11T18:37:04.505Z,1.30
2022-12-11T18:39:31.075Z,1.40
2022-12-11T18:42:24.286Z,1.40
2022-12-11T18:44:45.454Z,1.40
2022-12-11T18:47:12.042Z,1.40
2022-12-11T18:49:41.011Z,1.40
2022-12-11T18:52:09.999Z,1.40
2022-12-11T18:54:36.702Z,1.40
2022-12-11T18:57:05.909Z,1.40
2022-12-11T18:59:32.508Z,1.40
2022-12-11T19:01:59.111Z,1.30
2022-12-11T19:04:25.740Z,1.40
2022-12-11T19:06:52.411Z,1.30
2022-12-11T19:09:18.983Z,1.30
2022-12-11T19:11:45.628Z,1.30
2022-12-11T19:14:12.242Z,1.30
2022-12-11T19:16:40.063Z,1.30
2022-12-11T19:19:14.690Z,1.30
2022-12-11T19:21:41.750Z,1.30
2022-12-11T19:24:11.946Z,1.30
2022-12-11T19:26:38.532Z,1.20
2022-12-11T19:29:05.099Z,1.20
2022-12-11T19:31:32.179Z,1.20
2022-12-11T19:34:01.560Z,1.20
2022-12-11T19:36:28.872Z,1.20
2022-12-11T19:39:01.914Z,1.20
2022-12-11T19:41:29.669Z,1.20
2022-12-11T19:43:59.186Z,1.20
2022-12-11T19:46:26.494Z,1.20
2022-12-11T19:48:54.317Z,1.30
2022-12-11T19:51:22.614Z,1.30
2022-12-11T19:53:51.708Z,1.30
2022-12-11T19:56:19.358Z,1.30
2022-12-11T19:58:48.641Z,1.40
2022-12-11T20:01:24.641Z,1.30
2022-12-11T20:03:52.475Z,1.40
2022-12-11T20:06:21.338Z,1.40
2022-12-11T20:08:47.965Z,1.40
2022-12-11T20:11:18.639Z,1.40
2022-12-11T20:13:49.221Z,1.40
2022-12-11T20:16:28.888Z,1.40
2022-12-11T20:19:05.815Z,1.40
2022-12-11T20:21:32.445Z,1.40
2022-12-11T20:23:59.515Z,1.40
2022-12-11T20:26:26.170Z,1.40
2022-12-11T20:28:54.987Z,1.40
2022-12-11T20:31:25.526Z,1.40
2022-12-11T20:33:52.896Z,1.40
2022-12-11T20:36:20.349Z,1.40
2022-12-11T20:38:46.979Z,1.40
2022-12-11T20:41:16.666Z,1.40
2022-12-11T20:43:43.323Z,1.30
2022-12-11T20:46:12.746Z,1.30
2022-12-11T20:48:39.807Z,1.40
2022-12-11T20:51:09.643Z,1.40
2022-12-11T20:53:36.865Z,1.40
2022-12-11T20:56:08.838Z,1.40
2022-12-11T20:58:36.087Z,1.40
2022-12-11T21:01:04.779Z,1.40
2022-12-11T21:03:34.508Z,1.40
2022-12-11T21:06:04.197Z,1.30
2022-12-11T21:08:33.118Z,1.30
2022-12-11T21:10:59.660Z,1.30
2022-12-11T21:13:28.464Z,1.30
2022-12-11T21:15:56.766Z,1.30
2022-12-11T21:18:23.477Z,1.30
2022-12-11T21:20:55.458Z,1.30
2022-12-11T21:23:22.103Z,1.30
2022-12-11T21:25:50.790Z,1.30
2022-12-11T21:28:17.716Z,1.30
2022-12-11T21:30:44.318Z,1.40
2022-12-11T21:33:10.839Z,1.40
2022-12-11T21:35:37.347Z,1.40
2022-12-11T21:38:03.913Z,1.40
2022-12-11T21:40:30.576Z,1.40
2022-12-11T21:42:57.367Z,1.40
2022-12-11T21:45:59.883Z,1.30
2022-12-11T21:48:11.418Z,1.30
2022-12-11T21:50:38.014Z,1.40
2022-12-11T21:53:04.699Z,1.40
2022-12-11T21:55:31.296Z,1.40
2022-12-11T21:58:00.296Z,1.30
2022-12-11T22:00:28.145Z,1.30
2022-12-11T22:02:54.742Z,1.30
2022-12-11T22:05:21.476Z,1.30
2022-12-11T22:07:52.755Z,1.30
2022-12-11T22:10:21.577Z,1.30
2022-12-11T22:12:50.278Z,1.30
2022-12-11T22:15:19.436Z,1.30
2022-12-11T22:17:46.020Z,1.30
2022-12-11T22:20:12.908Z,1.30
2022-12-11T22:22:41.668Z,1.30
2022-12-11T22:25:08.481Z,1.30
2022-12-11T22:27:35.318Z,1.20
2022-12-11T22:30:02.039Z,1.20
2022-12-11T22:32:30.727Z,1.20
2022-12-11T22:34:59.556Z,1.20
2022-12-11T22:37:29.019Z,1.20
2022-12-11T22:39:57.857Z,1.20
2022-12-11T22:42:26.658Z,1.30
2022-12-11T22:44:53.209Z,1.20
2022-12-11T22:47:19.833Z,1.20
2022-12-11T22:49:46.517Z,1.20
2022-12-11T22:52:13.074Z,1.20
2022-12-11T22:54:40.181Z,1.20
2022-12-11T22:57:07.044Z,1.20
2022-12-11T22:59:36.403Z,1.20
2022-12-11T23:02:02.951Z,1.20
2022-12-11T23:04:29.555Z,1.20
2022-12-11T23:06:56.141Z,1.30
2022-12-11T23:09:22.939Z,1.20
2022-12-11T23:11:51.638Z,1.20
2022-12-11T23:14:18.527Z,1.20
2022-12-11T23:16:45.135Z,1.20
2022-12-11T23:19:11.821Z,1.20
2022-12-11T23:21:38.455Z,1.30
2022-12-11T23:24:05.492Z,1.20
2022-12-11T23:26:32.261Z,1.20
2022-12-11T23:29:01.680Z,1.20
2022-12-11T23:31:28.473Z,1.20
2022-12-11T23:33:55.081Z,1.20
2022-12-11T23:36:21.994Z,1.20
2022-12-11T23:38:54.820Z,1.30
2022-12-11T23:41:22.072Z,1.30
2022-12-11T23:43:53.336Z,1.30
2022-12-11T23:46:21.634Z,1.30
2022-12-11T23:48:48.603Z,1.40
2022-12-11T23:51:18.231Z,1.40
2022-12-11T23:53:45.179Z,1.40
2022-12-11T23:56:17.228Z,1.40
2022-12-11T23:58:47.464Z,1.40
